sensor_id;sensor_type;location;lat;lon;timestamp;P1;durP1;ratioP1;P2;durP2;ratioP2
62673;SDS011;62269;47.594;17.638;2023-04-24T00:00:36;11.88;;;10.07;;
62673;SDS011;62269;47.594;17.638;2023-04-24T00:01:34;11.50;;;10.35;;
62673;SDS011;62269;47.594;17.638;2023-04-24T00:02:33;10.77;;;9.68;;
62673;SDS011;62269;47.594;17.638;2023-04-24T00:03:30;10.68;;;9.57;;
62673;SDS011;62269;47.594;17.638;2023-04-24T00:04:29;10.93;;;9.82;;
62673;SDS011;62269;47.594;17.638;2023-04-24T00:05:28;12.57;;;10.13;;
62673;SDS011;62269;47.594;17.638;2023-04-24T00:06:25;10.82;;;9.75;;
62673;SDS011;62269;47.594;17.638;2023-04-24T00:07:29;13.18;;;10.38;;
62673;SDS011;62269;47.594;17.638;2023-04-24T00:08:26;12.48;;;10.15;;
62673;SDS011;62269;47.594;17.638;2023-04-24T00:09:23;14.38;;;11.27;;
62673;SDS011;62269;47.594;17.638;2023-04-24T00:10:20;17.35;;;10.15;;
62673;SDS011;62269;47.594;17.638;2023-04-24T00:12:57;11.25;;;10.05;;
62673;SDS011;62269;47.594;17.638;2023-04-24T00:13:54;12.52;;;10.52;;
62673;SDS011;62269;47.594;17.638;2023-04-24T00:14:51;11.45;;;10.25;;
62673;SDS011;62269;47.594;17.638;2023-04-24T00:15:48;13.13;;;11.02;;
62673;SDS011;62269;47.594;17.638;2023-04-24T00:16:48;13.65;;;10.43;;
62673;SDS011;62269;47.594;17.638;2023-04-24T00:17:45;12.18;;;10.88;;
62673;SDS011;62269;47.594;17.638;2023-04-24T00:18:42;11.32;;;10.23;;
62673;SDS011;62269;47.594;17.638;2023-04-24T00:19:41;14.00;;;10.05;;
62673;SDS011;62269;47.594;17.638;2023-04-24T00:20:39;11.85;;;10.25;;
62673;SDS011;62269;47.594;17.638;2023-04-24T00:21:36;11.38;;;10.02;;
62673;SDS011;62269;47.594;17.638;2023-04-24T00:22:34;12.60;;;10.80;;
62673;SDS011;62269;47.594;17.638;2023-04-24T00:23:31;12.05;;;10.30;;
62673;SDS011;62269;47.594;17.638;2023-04-24T00:24:28;11.55;;;10.45;;
62673;SDS011;62269;47.594;17.638;2023-04-24T00:25:25;11.12;;;10.02;;
62673;SDS011;62269;47.594;17.638;2023-04-24T00:26:22;12.02;;;10.38;;
62673;SDS011;62269;47.594;17.638;2023-04-24T00:27:19;11.77;;;10.50;;
62673;SDS011;62269;47.594;17.638;2023-04-24T00:28:19;12.88;;;10.25;;
62673;SDS011;62269;47.594;17.638;2023-04-24T00:29:16;11.75;;;9.98;;
62673;SDS011;62269;47.594;17.638;2023-04-24T00:30:14;11.57;;;10.23;;
62673;SDS011;62269;47.594;17.638;2023-04-24T00:31:11;11.75;;;10.55;;
62673;SDS011;62269;47.594;17.638;2023-04-24T00:32:08;11.20;;;9.98;;
62673;SDS011;62269;47.594;17.638;2023-04-24T00:33:06;11.55;;;10.10;;
62673;SDS011;62269;47.594;17.638;2023-04-24T00:34:03;13.23;;;11.52;;
62673;SDS011;62269;47.594;17.638;2023-04-24T00:35:01;12.13;;;10.40;;
62673;SDS011;62269;47.594;17.638;2023-04-24T00:35:58;11.50;;;10.40;;
62673;SDS011;62269;47.594;17.638;2023-04-24T00:36:55;11.48;;;10.38;;
62673;SDS011;62269;47.594;17.638;2023-04-24T00:37:52;11.80;;;10.60;;
62673;SDS011;62269;47.594;17.638;2023-04-24T00:38:49;12.07;;;10.45;;
62673;SDS011;62269;47.594;17.638;2023-04-24T00:39:46;11.73;;;10.45;;
62673;SDS011;62269;47.594;17.638;2023-04-24T00:40:44;12.90;;;10.70;;
62673;SDS011;62269;47.594;17.638;2023-04-24T00:41:41;16.10;;;10.43;;
62673;SDS011;62269;47.594;17.638;2023-04-24T00:42:39;13.05;;;10.50;;
62673;SDS011;62269;47.594;17.638;2023-04-24T00:43:37;11.75;;;10.60;;
62673;SDS011;62269;47.594;17.638;2023-04-24T00:44:34;12.75;;;11.43;;
62673;SDS011;62269;47.594;17.638;2023-04-24T00:45:31;11.57;;;10.38;;
62673;SDS011;62269;47.594;17.638;2023-04-24T00:46:28;13.80;;;10.88;;
62673;SDS011;62269;47.594;17.638;2023-04-24T00:47:26;15.63;;;11.45;;
62673;SDS011;62269;47.594;17.638;2023-04-24T00:48:23;12.27;;;10.40;;
62673;SDS011;62269;47.594;17.638;2023-04-24T00:49:21;11.70;;;10.50;;
62673;SDS011;62269;47.594;17.638;2023-04-24T00:50:20;12.50;;;11.20;;
62673;SDS011;62269;47.594;17.638;2023-04-24T00:51:18;15.45;;;11.45;;
62673;SDS011;62269;47.594;17.638;2023-04-24T00:52:15;13.00;;;11.77;;
62673;SDS011;62269;47.594;17.638;2023-04-24T00:53:14;12.98;;;11.48;;
62673;SDS011;62269;47.594;17.638;2023-04-24T00:54:12;16.00;;;11.48;;
62673;SDS011;62269;47.594;17.638;2023-04-24T00:55:09;14.00;;;11.45;;
62673;SDS011;62269;47.594;17.638;2023-04-24T00:56:06;12.80;;;11.35;;
62673;SDS011;62269;47.594;17.638;2023-04-24T00:57:04;13.30;;;11.45;;
62673;SDS011;62269;47.594;17.638;2023-04-24T00:58:01;13.68;;;12.40;;
62673;SDS011;62269;47.594;17.638;2023-04-24T00:58:58;16.40;;;11.65;;
62673;SDS011;62269;47.594;17.638;2023-04-24T00:59:56;13.50;;;12.10;;
62673;SDS011;62269;47.594;17.638;2023-04-24T01:00:53;13.10;;;11.80;;
62673;SDS011;62269;47.594;17.638;2023-04-24T01:01:51;12.82;;;11.57;;
62673;SDS011;62269;47.594;17.638;2023-04-24T01:02:50;16.67;;;12.43;;
62673;SDS011;62269;47.594;17.638;2023-04-24T01:03:49;13.52;;;12.23;;
62673;SDS011;62269;47.594;17.638;2023-04-24T01:04:49;12.30;;;11.12;;
62673;SDS011;62269;47.594;17.638;2023-04-24T01:05:47;12.10;;;10.80;;
62673;SDS011;62269;47.594;17.638;2023-04-24T01:06:45;13.38;;;12.05;;
62673;SDS011;62269;47.594;17.638;2023-04-24T01:07:43;13.02;;;11.73;;
62673;SDS011;62269;47.594;17.638;2023-04-24T01:08:42;14.00;;;12.30;;
62673;SDS011;62269;47.594;17.638;2023-04-24T01:09:40;12.30;;;10.18;;
62673;SDS011;62269;47.594;17.638;2023-04-24T01:10:39;14.40;;;11.95;;
62673;SDS011;62269;47.594;17.638;2023-04-24T01:11:37;12.98;;;10.45;;
62673;SDS011;62269;47.594;17.638;2023-04-24T01:12:35;12.52;;;11.23;;
62673;SDS011;62269;47.594;17.638;2023-04-24T01:13:32;12.70;;;11.45;;
62673;SDS011;62269;47.594;17.638;2023-04-24T01:14:30;11.98;;;10.77;;
62673;SDS011;62269;47.594;17.638;2023-04-24T01:15:27;13.23;;;11.68;;
62673;SDS011;62269;47.594;17.638;2023-04-24T01:16:24;13.05;;;11.75;;
62673;SDS011;62269;47.594;17.638;2023-04-24T01:17:22;12.40;;;11.12;;
62673;SDS011;62269;47.594;17.638;2023-04-24T01:18:19;12.90;;;11.20;;
62673;SDS011;62269;47.594;17.638;2023-04-24T01:19:17;12.05;;;10.85;;
62673;SDS011;62269;47.594;17.638;2023-04-24T01:20:15;14.25;;;11.95;;
62673;SDS011;62269;47.594;17.638;2023-04-24T01:21:14;13.27;;;11.05;;
62673;SDS011;62269;47.594;17.638;2023-04-24T01:22:13;14.30;;;11.55;;
62673;SDS011;62269;47.594;17.638;2023-04-24T01:23:11;13.40;;;12.02;;
62673;SDS011;62269;47.594;17.638;2023-04-24T01:24:08;13.62;;;11.60;;
62673;SDS011;62269;47.594;17.638;2023-04-24T01:25:05;13.35;;;11.93;;
62673;SDS011;62269;47.594;17.638;2023-04-24T01:26:03;12.18;;;10.85;;
62673;SDS011;62269;47.594;17.638;2023-04-24T01:27:00;12.93;;;11.63;;
62673;SDS011;62269;47.594;17.638;2023-04-24T01:27:58;12.88;;;11.57;;
62673;SDS011;62269;47.594;17.638;2023-04-24T01:28:56;12.50;;;11.20;;
62673;SDS011;62269;47.594;17.638;2023-04-24T01:29:53;12.50;;;11.18;;
62673;SDS011;62269;47.594;17.638;2023-04-24T01:30:50;19.10;;;10.70;;
62673;SDS011;62269;47.594;17.638;2023-04-24T01:31:47;10.93;;;9.73;;
62673;SDS011;62269;47.594;17.638;2023-04-24T01:32:45;10.30;;;9.18;;
62673;SDS011;62269;47.594;17.638;2023-04-24T01:33:42;11.65;;;10.45;;
62673;SDS011;62269;47.594;17.638;2023-04-24T01:34:39;12.40;;;11.10;;
62673;SDS011;62269;47.594;17.638;2023-04-24T01:35:37;12.93;;;11.60;;
62673;SDS011;62269;47.594;17.638;2023-04-24T01:36:34;16.37;;;11.77;;
62673;SDS011;62269;47.594;17.638;2023-04-24T01:37:32;12.95;;;10.52;;
62673;SDS011;62269;47.594;17.638;2023-04-24T01:38:30;12.23;;;10.98;;
62673;SDS011;62269;47.594;17.638;2023-04-24T01:39:28;11.70;;;10.52;;
62673;SDS011;62269;47.594;17.638;2023-04-24T01:40:25;12.85;;;11.02;;
62673;SDS011;62269;47.594;17.638;2023-04-24T01:41:22;11.80;;;10.60;;
62673;SDS011;62269;47.594;17.638;2023-04-24T01:42:20;11.77;;;10.40;;
62673;SDS011;62269;47.594;17.638;2023-04-24T01:43:17;13.52;;;12.05;;
62673;SDS011;62269;47.594;17.638;2023-04-24T01:44:14;13.30;;;11.73;;
62673;SDS011;62269;47.594;17.638;2023-04-24T01:45:12;12.55;;;11.02;;
62673;SDS011;62269;47.594;17.638;2023-04-24T01:46:09;12.15;;;9.25;;
62673;SDS011;62269;47.594;17.638;2023-04-24T01:47:07;11.63;;;9.77;;
62673;SDS011;62269;47.594;17.638;2023-04-24T01:48:04;13.23;;;10.77;;
62673;SDS011;62269;47.594;17.638;2023-04-24T01:49:01;12.13;;;10.02;;
62673;SDS011;62269;47.594;17.638;2023-04-24T01:49:59;12.25;;;10.93;;
62673;SDS011;62269;47.594;17.638;2023-04-24T01:50:56;11.50;;;9.55;;
62673;SDS011;62269;47.594;17.638;2023-04-24T01:51:53;12.57;;;10.70;;
62673;SDS011;62269;47.594;17.638;2023-04-24T01:52:50;10.85;;;9.75;;
62673;SDS011;62269;47.594;17.638;2023-04-24T01:53:48;10.93;;;9.05;;
62673;SDS011;62269;47.594;17.638;2023-04-24T01:54:45;12.50;;;9.45;;
62673;SDS011;62269;47.594;17.638;2023-04-24T01:55:42;10.07;;;9.07;;
62673;SDS011;62269;47.594;17.638;2023-04-24T01:56:40;9.98;;;8.48;;
62673;SDS011;62269;47.594;17.638;2023-04-24T01:57:39;10.15;;;9.00;;
62673;SDS011;62269;47.594;17.638;2023-04-24T01:58:36;11.02;;;9.23;;
62673;SDS011;62269;47.594;17.638;2023-04-24T01:59:33;9.75;;;8.60;;
62673;SDS011;62269;47.594;17.638;2023-04-24T02:00:32;10.93;;;9.82;;
62673;SDS011;62269;47.594;17.638;2023-04-24T02:01:36;10.40;;;8.60;;
62673;SDS011;62269;47.594;17.638;2023-04-24T02:02:34;12.37;;;9.82;;
62673;SDS011;62269;47.594;17.638;2023-04-24T02:03:31;10.43;;;9.23;;
62673;SDS011;62269;47.594;17.638;2023-04-24T02:04:28;10.40;;;8.32;;
62673;SDS011;62269;47.594;17.638;2023-04-24T02:05:26;10.93;;;9.13;;
62673;SDS011;62269;47.594;17.638;2023-04-24T02:06:23;9.80;;;8.38;;
62673;SDS011;62269;47.594;17.638;2023-04-24T02:07:20;10.45;;;9.40;;
62673;SDS011;62269;47.594;17.638;2023-04-24T02:08:17;16.37;;;9.77;;
62673;SDS011;62269;47.594;17.638;2023-04-24T02:09:14;9.70;;;8.70;;
62673;SDS011;62269;47.594;17.638;2023-04-24T02:10:11;10.00;;;8.07;;
62673;SDS011;62269;47.594;17.638;2023-04-24T02:11:09;10.48;;;8.07;;
62673;SDS011;62269;47.594;17.638;2023-04-24T02:12:06;12.75;;;8.32;;
62673;SDS011;62269;47.594;17.638;2023-04-24T02:13:03;11.95;;;9.20;;
62673;SDS011;62269;47.594;17.638;2023-04-24T02:14:01;10.52;;;8.55;;
62673;SDS011;62269;47.594;17.638;2023-04-24T02:14:58;10.73;;;8.15;;
62673;SDS011;62269;47.594;17.638;2023-04-24T02:15:55;10.65;;;8.60;;
62673;SDS011;62269;47.594;17.638;2023-04-24T02:16:52;11.55;;;8.43;;
62673;SDS011;62269;47.594;17.638;2023-04-24T02:17:50;10.65;;;8.35;;
62673;SDS011;62269;47.594;17.638;2023-04-24T02:18:47;9.52;;;8.50;;
62673;SDS011;62269;47.594;17.638;2023-04-24T02:19:44;9.75;;;8.75;;
62673;SDS011;62269;47.594;17.638;2023-04-24T02:20:41;9.57;;;8.50;;
62673;SDS011;62269;47.594;17.638;2023-04-24T02:21:39;10.90;;;7.55;;
62673;SDS011;62269;47.594;17.638;2023-04-24T02:22:36;11.27;;;8.40;;
62673;SDS011;62269;47.594;17.638;2023-04-24T02:23:33;9.35;;;8.02;;
62673;SDS011;62269;47.594;17.638;2023-04-24T02:24:30;10.23;;;8.18;;
62673;SDS011;62269;47.594;17.638;2023-04-24T02:25:27;11.35;;;7.32;;
62673;SDS011;62269;47.594;17.638;2023-04-24T02:26:24;10.80;;;7.35;;
62673;SDS011;62269;47.594;17.638;2023-04-24T02:27:21;8.73;;;7.35;;
62673;SDS011;62269;47.594;17.638;2023-04-24T02:28:19;12.37;;;8.50;;
62673;SDS011;62269;47.594;17.638;2023-04-24T02:29:16;11.77;;;8.32;;
62673;SDS011;62269;47.594;17.638;2023-04-24T02:30:13;11.02;;;8.07;;
62673;SDS011;62269;47.594;17.638;2023-04-24T02:31:10;9.07;;;7.62;;
62673;SDS011;62269;47.594;17.638;2023-04-24T02:32:07;8.60;;;7.32;;
62673;SDS011;62269;47.594;17.638;2023-04-24T02:33:08;11.88;;;8.07;;
62673;SDS011;62269;47.594;17.638;2023-04-24T02:34:05;8.77;;;6.97;;
62673;SDS011;62269;47.594;17.638;2023-04-24T02:35:02;11.55;;;8.20;;
62673;SDS011;62269;47.594;17.638;2023-04-24T02:36:00;14.50;;;7.93;;
62673;SDS011;62269;47.594;17.638;2023-04-24T02:36:58;8.25;;;7.45;;
62673;SDS011;62269;47.594;17.638;2023-04-24T02:37:55;9.43;;;7.60;;
62673;SDS011;62269;47.594;17.638;2023-04-24T02:38:52;8.00;;;7.03;;
62673;SDS011;62269;47.594;17.638;2023-04-24T02:39:49;9.85;;;7.40;;
62673;SDS011;62269;47.594;17.638;2023-04-24T02:40:46;7.87;;;7.07;;
62673;SDS011;62269;47.594;17.638;2023-04-24T02:41:43;10.45;;;7.37;;
62673;SDS011;62269;47.594;17.638;2023-04-24T02:42:41;8.13;;;7.25;;
62673;SDS011;62269;47.594;17.638;2023-04-24T02:43:38;10.88;;;7.07;;
62673;SDS011;62269;47.594;17.638;2023-04-24T02:44:35;8.48;;;7.45;;
62673;SDS011;62269;47.594;17.638;2023-04-24T02:45:32;8.88;;;7.00;;
62673;SDS011;62269;47.594;17.638;2023-04-24T02:46:31;11.52;;;8.10;;
62673;SDS011;62269;47.594;17.638;2023-04-24T02:47:28;7.87;;;7.05;;
62673;SDS011;62269;47.594;17.638;2023-04-24T02:48:25;8.88;;;7.28;;
62673;SDS011;62269;47.594;17.638;2023-04-24T02:49:22;9.85;;;7.30;;
62673;SDS011;62269;47.594;17.638;2023-04-24T02:50:19;8.35;;;6.85;;
62673;SDS011;62269;47.594;17.638;2023-04-24T02:51:16;7.95;;;7.10;;
62673;SDS011;62269;47.594;17.638;2023-04-24T02:52:13;9.70;;;7.37;;
62673;SDS011;62269;47.594;17.638;2023-04-24T02:53:11;8.43;;;7.37;;
62673;SDS011;62269;47.594;17.638;2023-04-24T02:54:08;8.20;;;7.00;;
62673;SDS011;62269;47.594;17.638;2023-04-24T02:55:06;7.85;;;7.15;;
62673;SDS011;62269;47.594;17.638;2023-04-24T02:56:04;10.25;;;7.03;;
62673;SDS011;62269;47.594;17.638;2023-04-24T02:57:01;7.75;;;6.95;;
62673;SDS011;62269;47.594;17.638;2023-04-24T02:57:59;8.50;;;7.25;;
62673;SDS011;62269;47.594;17.638;2023-04-24T02:58:56;7.78;;;6.60;;
62673;SDS011;62269;47.594;17.638;2023-04-24T02:59:53;9.75;;;7.45;;
62673;SDS011;62269;47.594;17.638;2023-04-24T03:00:53;8.88;;;7.50;;
62673;SDS011;62269;47.594;17.638;2023-04-24T03:01:52;12.82;;;7.45;;
62673;SDS011;62269;47.594;17.638;2023-04-24T03:02:49;8.75;;;7.43;;
62673;SDS011;62269;47.594;17.638;2023-04-24T03:03:46;8.20;;;7.32;;
62673;SDS011;62269;47.594;17.638;2023-04-24T03:04:43;9.00;;;7.95;;
62673;SDS011;62269;47.594;17.638;2023-04-24T03:05:41;11.18;;;6.90;;
62673;SDS011;62269;47.594;17.638;2023-04-24T03:06:38;9.63;;;7.37;;
62673;SDS011;62269;47.594;17.638;2023-04-24T03:07:35;12.45;;;6.95;;
62673;SDS011;62269;47.594;17.638;2023-04-24T03:08:33;7.45;;;6.68;;
62673;SDS011;62269;47.594;17.638;2023-04-24T03:09:30;9.13;;;7.18;;
62673;SDS011;62269;47.594;17.638;2023-04-24T03:10:27;8.38;;;7.53;;
62673;SDS011;62269;47.594;17.638;2023-04-24T03:11:24;8.50;;;7.20;;
62673;SDS011;62269;47.594;17.638;2023-04-24T03:12:22;8.00;;;7.12;;
62673;SDS011;62269;47.594;17.638;2023-04-24T03:13:20;7.68;;;6.87;;
62673;SDS011;62269;47.594;17.638;2023-04-24T03:14:17;7.68;;;6.87;;
62673;SDS011;62269;47.594;17.638;2023-04-24T03:15:14;11.30;;;7.05;;
62673;SDS011;62269;47.594;17.638;2023-04-24T03:16:11;8.27;;;7.25;;
62673;SDS011;62269;47.594;17.638;2023-04-24T03:17:08;7.72;;;6.93;;
62673;SDS011;62269;47.594;17.638;2023-04-24T03:18:05;8.13;;;7.32;;
62673;SDS011;62269;47.594;17.638;2023-04-24T03:19:02;8.15;;;6.78;;
62673;SDS011;62269;47.594;17.638;2023-04-24T03:19:59;8.27;;;6.97;;
62673;SDS011;62269;47.594;17.638;2023-04-24T03:20:56;9.73;;;7.80;;
62673;SDS011;62269;47.594;17.638;2023-04-24T03:21:54;7.62;;;6.80;;
62673;SDS011;62269;47.594;17.638;2023-04-24T03:22:51;8.35;;;7.07;;
62673;SDS011;62269;47.594;17.638;2023-04-24T03:23:48;10.52;;;7.55;;
62673;SDS011;62269;47.594;17.638;2023-04-24T03:24:45;9.45;;;6.78;;
62673;SDS011;62269;47.594;17.638;2023-04-24T03:25:42;8.18;;;7.37;;
62673;SDS011;62269;47.594;17.638;2023-04-24T03:26:39;9.13;;;7.37;;
62673;SDS011;62269;47.594;17.638;2023-04-24T03:27:36;8.90;;;7.03;;
62673;SDS011;62269;47.594;17.638;2023-04-24T03:28:34;8.60;;;6.62;;
62673;SDS011;62269;47.594;17.638;2023-04-24T03:29:31;8.13;;;7.18;;
62673;SDS011;62269;47.594;17.638;2023-04-24T03:30:28;8.88;;;7.00;;
62673;SDS011;62269;47.594;17.638;2023-04-24T03:31:25;10.15;;;7.15;;
62673;SDS011;62269;47.594;17.638;2023-04-24T03:32:22;8.18;;;6.50;;
62673;SDS011;62269;47.594;17.638;2023-04-24T03:33:19;10.27;;;7.43;;
62673;SDS011;62269;47.594;17.638;2023-04-24T03:34:16;8.45;;;7.10;;
62673;SDS011;62269;47.594;17.638;2023-04-24T03:35:13;9.95;;;7.47;;
62673;SDS011;62269;47.594;17.638;2023-04-24T03:36:10;8.55;;;6.82;;
62673;SDS011;62269;47.594;17.638;2023-04-24T03:37:07;9.73;;;7.25;;
62673;SDS011;62269;47.594;17.638;2023-04-24T03:38:04;10.57;;;7.00;;
62673;SDS011;62269;47.594;17.638;2023-04-24T03:39:01;12.75;;;7.62;;
62673;SDS011;62269;47.594;17.638;2023-04-24T03:39:58;10.30;;;7.40;;
62673;SDS011;62269;47.594;17.638;2023-04-24T03:40:55;7.90;;;7.10;;
62673;SDS011;62269;47.594;17.638;2023-04-24T03:41:52;13.32;;;7.32;;
62673;SDS011;62269;47.594;17.638;2023-04-24T03:42:49;9.55;;;7.22;;
62673;SDS011;62269;47.594;17.638;2023-04-24T03:43:46;9.55;;;7.43;;
62673;SDS011;62269;47.594;17.638;2023-04-24T03:44:43;8.10;;;6.82;;
62673;SDS011;62269;47.594;17.638;2023-04-24T03:45:40;7.97;;;6.80;;
62673;SDS011;62269;47.594;17.638;2023-04-24T03:46:37;8.15;;;6.62;;
62673;SDS011;62269;47.594;17.638;2023-04-24T03:47:34;7.00;;;6.30;;
62673;SDS011;62269;47.594;17.638;2023-04-24T03:48:31;8.13;;;6.90;;
62673;SDS011;62269;47.594;17.638;2023-04-24T03:49:28;7.82;;;6.43;;
62673;SDS011;62269;47.594;17.638;2023-04-24T03:50:25;9.73;;;7.18;;
62673;SDS011;62269;47.594;17.638;2023-04-24T03:51:23;8.07;;;6.72;;
62673;SDS011;62269;47.594;17.638;2023-04-24T03:52:20;8.95;;;7.12;;
62673;SDS011;62269;47.594;17.638;2023-04-24T03:53:17;8.07;;;6.95;;
62673;SDS011;62269;47.594;17.638;2023-04-24T03:54:14;8.93;;;6.90;;
62673;SDS011;62269;47.594;17.638;2023-04-24T03:55:11;7.57;;;6.78;;
62673;SDS011;62269;47.594;17.638;2023-04-24T03:56:09;9.23;;;7.35;;
62673;SDS011;62269;47.594;17.638;2023-04-24T03:57:06;8.18;;;6.97;;
62673;SDS011;62269;47.594;17.638;2023-04-24T03:58:03;8.23;;;6.72;;
62673;SDS011;62269;47.594;17.638;2023-04-24T03:59:00;8.52;;;6.47;;
62673;SDS011;62269;47.594;17.638;2023-04-24T03:59:57;8.20;;;6.07;;
62673;SDS011;62269;47.594;17.638;2023-04-24T04:00:54;10.40;;;7.10;;
62673;SDS011;62269;47.594;17.638;2023-04-24T04:01:53;8.40;;;6.65;;
62673;SDS011;62269;47.594;17.638;2023-04-24T04:02:50;9.63;;;6.53;;
62673;SDS011;62269;47.594;17.638;2023-04-24T04:03:47;7.47;;;6.75;;
62673;SDS011;62269;47.594;17.638;2023-04-24T04:04:44;8.10;;;7.05;;
62673;SDS011;62269;47.594;17.638;2023-04-24T04:05:41;10.75;;;6.70;;
62673;SDS011;62269;47.594;17.638;2023-04-24T04:06:38;12.13;;;7.00;;
62673;SDS011;62269;47.594;17.638;2023-04-24T04:07:35;9.95;;;6.43;;
62673;SDS011;62269;47.594;17.638;2023-04-24T04:08:32;7.45;;;6.75;;
62673;SDS011;62269;47.594;17.638;2023-04-24T04:09:29;7.65;;;6.68;;
62673;SDS011;62269;47.594;17.638;2023-04-24T04:10:26;9.18;;;7.20;;
62673;SDS011;62269;47.594;17.638;2023-04-24T04:11:23;8.93;;;6.90;;
62673;SDS011;62269;47.594;17.638;2023-04-24T04:12:20;10.13;;;6.62;;
62673;SDS011;62269;47.594;17.638;2023-04-24T04:13:17;7.12;;;6.43;;
62673;SDS011;62269;47.594;17.638;2023-04-24T04:14:14;7.85;;;6.18;;
62673;SDS011;62269;47.594;17.638;2023-04-24T04:15:11;8.90;;;6.95;;
62673;SDS011;62269;47.594;17.638;2023-04-24T04:16:09;10.20;;;7.00;;
62673;SDS011;62269;47.594;17.638;2023-04-24T04:17:06;12.18;;;6.82;;
62673;SDS011;62269;47.594;17.638;2023-04-24T04:18:03;7.60;;;6.07;;
62673;SDS011;62269;47.594;17.638;2023-04-24T04:19:00;7.95;;;6.32;;
62673;SDS011;62269;47.594;17.638;2023-04-24T04:19:57;7.78;;;6.37;;
62673;SDS011;62269;47.594;17.638;2023-04-24T04:20:54;7.87;;;6.82;;
62673;SDS011;62269;47.594;17.638;2023-04-24T04:21:51;7.25;;;6.20;;
62673;SDS011;62269;47.594;17.638;2023-04-24T04:22:49;6.72;;;6.05;;
62673;SDS011;62269;47.594;17.638;2023-04-24T04:23:46;7.03;;;5.97;;
62673;SDS011;62269;47.594;17.638;2023-04-24T04:24:45;7.68;;;6.03;;
62673;SDS011;62269;47.594;17.638;2023-04-24T04:25:42;6.78;;;6.07;;
62673;SDS011;62269;47.594;17.638;2023-04-24T04:26:39;6.78;;;5.85;;
62673;SDS011;62269;47.594;17.638;2023-04-24T04:27:37;7.03;;;6.32;;
62673;SDS011;62269;47.594;17.638;2023-04-24T04:28:33;8.43;;;6.05;;
62673;SDS011;62269;47.594;17.638;2023-04-24T04:29:31;7.78;;;6.32;;
62673;SDS011;62269;47.594;17.638;2023-04-24T04:30:28;7.90;;;6.25;;
62673;SDS011;62269;47.594;17.638;2023-04-24T04:31:28;8.30;;;6.40;;
62673;SDS011;62269;47.594;17.638;2023-04-24T04:32:25;6.75;;;6.05;;
62673;SDS011;62269;47.594;17.638;2023-04-24T04:33:25;7.22;;;6.43;;
62673;SDS011;62269;47.594;17.638;2023-04-24T04:34:22;8.13;;;6.10;;
62673;SDS011;62269;47.594;17.638;2023-04-24T04:35:19;7.90;;;6.18;;
62673;SDS011;62269;47.594;17.638;2023-04-24T04:36:18;8.48;;;6.57;;
62673;SDS011;62269;47.594;17.638;2023-04-24T04:37:15;8.93;;;6.55;;
62673;SDS011;62269;47.594;17.638;2023-04-24T04:38:12;7.68;;;6.65;;
62673;SDS011;62269;47.594;17.638;2023-04-24T04:39:09;7.28;;;6.40;;
62673;SDS011;62269;47.594;17.638;2023-04-24T04:40:06;9.20;;;6.57;;
62673;SDS011;62269;47.594;17.638;2023-04-24T04:41:04;7.93;;;6.35;;
62673;SDS011;62269;47.594;17.638;2023-04-24T04:42:00;6.87;;;6.18;;
62673;SDS011;62269;47.594;17.638;2023-04-24T04:42:57;8.77;;;6.50;;
62673;SDS011;62269;47.594;17.638;2023-04-24T04:43:54;7.00;;;5.97;;
62673;SDS011;62269;47.594;17.638;2023-04-24T04:44:54;7.35;;;5.80;;
62673;SDS011;62269;47.594;17.638;2023-04-24T04:45:53;7.90;;;5.65;;
62673;SDS011;62269;47.594;17.638;2023-04-24T04:46:52;6.87;;;6.03;;
62673;SDS011;62269;47.594;17.638;2023-04-24T04:47:49;8.27;;;6.50;;
62673;SDS011;62269;47.594;17.638;2023-04-24T04:48:47;9.20;;;6.50;;
62673;SDS011;62269;47.594;17.638;2023-04-24T04:49:44;7.10;;;6.40;;
62673;SDS011;62269;47.594;17.638;2023-04-24T04:50:41;7.55;;;6.25;;
62673;SDS011;62269;47.594;17.638;2023-04-24T04:51:38;7.50;;;6.10;;
62673;SDS011;62269;47.594;17.638;2023-04-24T04:52:38;8.20;;;6.68;;
62673;SDS011;62269;47.594;17.638;2023-04-24T04:53:35;6.45;;;5.50;;
62673;SDS011;62269;47.594;17.638;2023-04-24T04:54:31;9.50;;;6.25;;
62673;SDS011;62269;47.594;17.638;2023-04-24T04:55:28;9.05;;;5.95;;
62673;SDS011;62269;47.594;17.638;2023-04-24T04:56:26;6.68;;;5.97;;
62673;SDS011;62269;47.594;17.638;2023-04-24T04:57:22;6.37;;;5.75;;
62673;SDS011;62269;47.594;17.638;2023-04-24T04:58:19;9.95;;;6.53;;
62673;SDS011;62269;47.594;17.638;2023-04-24T04:59:16;7.25;;;5.70;;
62673;SDS011;62269;47.594;17.638;2023-04-24T05:00:13;7.37;;;6.30;;
62673;SDS011;62269;47.594;17.638;2023-04-24T05:01:12;6.87;;;5.95;;
62673;SDS011;62269;47.594;17.638;2023-04-24T05:02:09;6.90;;;5.82;;
62673;SDS011;62269;47.594;17.638;2023-04-24T05:03:06;7.20;;;6.45;;
62673;SDS011;62269;47.594;17.638;2023-04-24T05:04:15;7.12;;;6.15;;
62673;SDS011;62269;47.594;17.638;2023-04-24T05:05:12;8.25;;;6.20;;
62673;SDS011;62269;47.594;17.638;2023-04-24T05:06:10;9.80;;;6.70;;
62673;SDS011;62269;47.594;17.638;2023-04-24T05:07:07;6.65;;;5.68;;
62673;SDS011;62269;47.594;17.638;2023-04-24T05:08:03;7.43;;;5.72;;
62673;SDS011;62269;47.594;17.638;2023-04-24T05:09:04;9.60;;;5.60;;
62673;SDS011;62269;47.594;17.638;2023-04-24T05:10:01;6.43;;;5.30;;
62673;SDS011;62269;47.594;17.638;2023-04-24T05:10:58;9.00;;;6.25;;
62673;SDS011;62269;47.594;17.638;2023-04-24T05:11:55;8.60;;;5.90;;
62673;SDS011;62269;47.594;17.638;2023-04-24T05:12:52;6.47;;;5.55;;
62673;SDS011;62269;47.594;17.638;2023-04-24T05:13:49;6.10;;;5.45;;
62673;SDS011;62269;47.594;17.638;2023-04-24T05:14:46;6.90;;;5.82;;
62673;SDS011;62269;47.594;17.638;2023-04-24T05:15:43;6.65;;;5.95;;
62673;SDS011;62269;47.594;17.638;2023-04-24T05:16:40;6.75;;;5.07;;
62673;SDS011;62269;47.594;17.638;2023-04-24T05:17:37;9.30;;;5.60;;
62673;SDS011;62269;47.594;17.638;2023-04-24T05:18:36;8.75;;;5.90;;
62673;SDS011;62269;47.594;17.638;2023-04-24T05:19:33;7.47;;;6.05;;
62673;SDS011;62269;47.594;17.638;2023-04-24T05:20:32;7.70;;;5.45;;
62673;SDS011;62269;47.594;17.638;2023-04-24T05:21:29;7.90;;;5.65;;
62673;SDS011;62269;47.594;17.638;2023-04-24T05:22:26;6.85;;;5.50;;
62673;SDS011;62269;47.594;17.638;2023-04-24T05:23:22;5.95;;;5.35;;
62673;SDS011;62269;47.594;17.638;2023-04-24T05:24:19;7.95;;;6.22;;
62673;SDS011;62269;47.594;17.638;2023-04-24T05:25:16;7.57;;;5.75;;
62673;SDS011;62269;47.594;17.638;2023-04-24T05:26:13;8.05;;;5.50;;
62673;SDS011;62269;47.594;17.638;2023-04-24T05:27:11;7.65;;;5.70;;
62673;SDS011;62269;47.594;17.638;2023-04-24T05:28:08;7.97;;;5.70;;
62673;SDS011;62269;47.594;17.638;2023-04-24T05:29:05;6.90;;;5.80;;
62673;SDS011;62269;47.594;17.638;2023-04-24T05:30:03;8.60;;;5.82;;
62673;SDS011;62269;47.594;17.638;2023-04-24T05:31:01;6.75;;;5.78;;
62673;SDS011;62269;47.594;17.638;2023-04-24T05:31:59;7.78;;;5.90;;
62673;SDS011;62269;47.594;17.638;2023-04-24T05:32:56;8.18;;;6.03;;
62673;SDS011;62269;47.594;17.638;2023-04-24T05:33:55;7.57;;;6.00;;
62673;SDS011;62269;47.594;17.638;2023-04-24T05:34:52;7.78;;;6.10;;
62673;SDS011;62269;47.594;17.638;2023-04-24T05:35:49;8.43;;;5.90;;
62673;SDS011;62269;47.594;17.638;2023-04-24T05:36:46;8.45;;;5.90;;
62673;SDS011;62269;47.594;17.638;2023-04-24T05:37:44;6.82;;;6.07;;
62673;SDS011;62269;47.594;17.638;2023-04-24T05:38:40;6.82;;;6.07;;